Time;durP1;ratioP1;P1;durP2;ratioP2;P2;SDS_P1;SDS_P2;PMS_P1;PMS_P2;Temp;Humidity;BMP_temperature;BMP_pressure;BME280_temperature;BME280_humidity;BME280_pressure;Samples;Min_cycle;Max_cycle;Signal;HPM_P1;HPM_P2
2022/03/10 00:02:22;;;;;;;21.15;14.18;;;3.70;99.90;;;;;;4978708;28;20124;-68
2022/03/10 00:04:47;;;;;;;20.33;13.65;;;4.00;99.90;;;;;;4994985;28;20613;-68
2022/03/10 00:07:13;;;;;;;20.67;14.00;;;3.30;99.90;;;;;;4995199;28;20074;-68
2022/03/10 00:09:38;;;;;;;23.50;14.55;;;3.50;99.90;;;;;;5011424;28;20070;-68
2022/03/10 00:12:05;;;;;;;25.65;14.70;;;3.30;99.90;;;;;;4995184;28;20117;-68
2022/03/10 00:14:30;;;;;;;22.70;14.88;;;3.40;99.90;;;;;;4995988;28;20621;-68
2022/03/10 00:16:56;;;;;;;23.52;14.90;;;3.80;99.90;;;;;;4994788;28;20074;-68
2022/03/10 00:19:22;;;;;;;23.13;15.07;;;3.30;99.90;;;;;;4995236;28;20096;-68
2022/03/10 00:21:49;;;;;;;20.02;14.85;;;2.80;99.90;;;;;;5010880;28;20054;-68
2022/03/10 00:24:16;;;;;;;23.30;15.35;;;2.90;99.90;;;;;;4994633;28;20049;-68
2022/03/10 00:26:42;;;;;;;23.50;14.52;;;2.90;99.90;;;;;;4995159;28;20039;-68
2022/03/10 00:29:08;;;;;;;19.00;14.65;;;3.10;99.90;;;;;;4996005;28;20041;-68
2022/03/10 00:31:34;;;;;;;24.45;15.05;;;2.80;99.90;;;;;;4995922;28;20038;-68
2022/03/10 00:34:00;;;;;;;21.90;14.98;;;2.70;99.90;;;;;;4995550;28;20042;-68
2022/03/10 00:36:26;;;;;;;23.05;15.25;;;3.10;99.90;;;;;;4994375;28;20052;-68
2022/03/10 00:38:52;;;;;;;21.55;15.32;;;2.70;99.90;;;;;;4994317;28;20406;-68
2022/03/10 00:41:18;;;;;;;21.60;14.95;;;2.80;99.90;;;;;;4995697;28;20418;-68
2022/03/10 00:43:44;;;;;;;21.13;14.93;;;;;;;;;;4978010;28;20038;-68
2022/03/10 00:46:11;;;;;;;27.15;15.48;;;3.00;99.90;;;;;;4994170;28;20078;-68
2022/03/10 00:48:37;;;;;;;24.50;15.20;;;2.20;99.90;;;;;;5010422;28;20042;-68
2022/03/10 00:51:04;;;;;;;22.25;15.15;;;2.70;99.90;;;;;;4995573;28;20053;-69
2022/03/10 00:53:30;;;;;;;22.30;16.00;;;2.50;99.90;;;;;;4994002;28;20061;-69
2022/03/10 00:55:56;;;;;;;23.25;16.10;;;2.80;99.90;;;;;;4995487;28;20042;-69
2022/03/10 00:58:22;;;;;;;21.95;15.10;;;2.50;99.90;;;;;;4993344;28;20181;-69
2022/03/10 01:00:47;;;;;;;24.95;15.63;;;1.70;99.90;;;;;;5013148;28;20136;-69
2022/03/10 01:03:15;;;;;;;22.88;15.38;;;3.40;99.90;;;;;;5014650;28;20056;-69
2022/03/10 01:05:41;;;;;;;27.13;15.00;;;2.60;99.90;;;;;;5014553;28;20115;-69
2022/03/10 01:08:06;;;;;;;22.38;15.13;;;2.30;99.90;;;;;;4996971;28;20076;-69
2022/03/10 01:10:32;;;;;;;23.08;16.30;;;2.40;98.80;;;;;;5014801;28;20041;-69
2022/03/10 01:12:59;;;;;;;30.05;16.45;;;2.40;99.90;;;;;;5014453;28;20401;-69
2022/03/10 01:15:27;;;;;;;28.33;15.70;;;2.20;99.90;;;;;;5014741;28;20041;-69
2022/03/10 01:17:53;;;;;;;23.92;16.05;;;2.40;99.90;;;;;;4996847;28;20050;-69
2022/03/10 01:20:23;;;;;;;23.85;15.20;;;1.70;99.90;;;;;;4996717;28;20049;-69
2022/03/10 01:22:51;;;;;;;22.55;15.35;;;2.40;99.90;;;;;;5014603;28;20041;-69
2022/03/10 01:25:18;;;;;;;26.98;16.20;;;2.10;99.90;;;;;;5013038;28;20084;-69
2022/03/10 01:27:44;;;;;;;24.25;16.00;;;3.10;99.90;;;;;;5014278;28;20038;-69
2022/03/10 01:30:12;;;;;;;25.40;15.82;;;2.20;99.90;;;;;;5014075;28;20100;-69
2022/03/10 01:32:38;;;;;;;29.08;15.73;;;1.90;99.90;;;;;;5014444;28;20038;-69
2022/03/10 01:35:05;;;;;;;24.75;15.90;;;2.10;99.90;;;;;;5014385;28;20362;-69
2022/03/10 01:37:36;;;;;;;23.23;15.45;;;2.30;99.90;;;;;;4996427;28;20041;-70
2022/03/10 01:40:07;;;;;;;22.52;15.93;;;2.30;99.90;;;;;;4996536;28;20124;-69
2022/03/10 01:42:33;;;;;;;26.02;15.43;;;2.10;99.90;;;;;;5014790;28;20374;-69
2022/03/10 01:44:59;;;;;;;23.38;16.30;;;2.60;99.90;;;;;;4980127;28;20034;-69
2022/03/10 01:47:25;;;;;;;25.75;14.85;;;2.40;99.90;;;;;;4996277;28;20034;-67
2022/03/10 01:49:50;;;;;;;29.85;15.60;;;2.10;99.90;;;;;;4996281;28;20041;-67
2022/03/10 01:52:19;;;;;;;34.42;16.10;;;2.30;99.90;;;;;;5012639;28;20575;-67
2022/03/10 01:54:45;;;;;;;22.10;14.40;;;2.40;99.90;;;;;;4980032;28;20073;-66
2022/03/10 01:57:12;;;;;;;22.88;15.02;;;;;;;;;;4996531;28;20436;-69
2022/03/10 01:59:41;;;;;;;25.33;15.32;;;2.20;99.90;;;;;;4996091;28;20136;-69
2022/03/10 02:02:08;;;;;;;27.13;15.07;;;2.20;99.60;;;;;;5039374;22;20120;-68
2022/03/10 02:04:34;;;;;;;22.52;14.07;;;2.20;99.90;;;;;;4992707;28;20042;-68
2022/03/10 02:07:06;;;;;;;21.33;14.15;;;2.00;99.90;;;;;;4993109;28;20042;-68
2022/03/10 02:12:17;;;;;;;23.33;14.35;;;2.60;99.90;;;;;;4992734;28;20156;-68
2022/03/10 02:17:27;;;;;;;24.35;14.30;;;2.40;99.90;;;;;;4992543;28;20504;-68
2022/03/10 02:19:55;;;;;;;21.88;13.48;;;2.20;99.90;;;;;;4992514;28;20069;-68
2022/03/10 02:22:22;;;;;;;27.10;14.02;;;2.40;99.90;;;;;;4991055;28;20089;-68
2022/03/10 02:24:49;;;;;;;21.60;14.40;;;2.50;99.90;;;;;;4992705;28;20452;-68
2022/03/10 02:27:27;;;;;;;21.90;14.38;;;2.80;99.90;;;;;;4992849;28;20042;-68
2022/03/10 02:29:55;;;;;;;25.08;14.60;;;2.50;99.90;;;;;;4975126;28;20489;-69
2022/03/10 02:32:22;;;;;;;24.85;14.50;;;2.20;99.90;;;;;;4991822;28;20061;-69
2022/03/10 02:34:48;;;;;;;23.80;14.95;;;2.50;99.90;;;;;;4992437;28;20519;-69
2022/03/10 02:37:15;;;;;;;26.42;13.80;;;1.90;99.90;;;;;;4991320;28;20042;-69
2022/03/10 02:39:42;;;;;;;25.00;14.95;;;2.50;97.60;;;;;;4992354;28;20042;-69
2022/03/10 02:42:09;;;;;;;24.80;14.45;;;2.30;99.90;;;;;;4974878;28;20038;-69
2022/03/10 02:44:43;;;;;;;27.42;14.32;;;2.30;99.90;;;;;;4990973;28;20398;-69
2022/03/10 02:47:09;;;;;;;22.17;15.00;;;2.70;98.40;;;;;;4991280;28;20097;-69
2022/03/10 02:49:35;;;;;;;24.27;14.60;;;2.20;99.90;;;;;;4991189;28;20046;-69
2022/03/10 02:52:03;;;;;;;29.23;14.40;;;2.60;99.90;;;;;;4991641;28;20038;-69
2022/03/10 02:54:29;;;;;;;21.55;13.90;;;2.30;99.90;;;;;;4990417;28;20042;-69
2022/03/10 02:56:55;;;;;;;22.45;14.80;;;2.20;99.90;;;;;;4991428;28;20085;-69
2022/03/10 02:59:20;;;;;;;24.45;14.43;;;2.30;99.90;;;;;;4990591;28;20074;-69
2022/03/10 03:01:46;;;;;;;21.98;14.63;;;2.00;99.90;;;;;;5000901;28;20054;-69
2022/03/10 03:04:12;;;;;;;28.88;14.82;;;1.40;99.90;;;;;;5011675;28;20034;-69
2022/03/10 03:06:38;;;;;;;22.75;14.35;;;;;;;;;;5010263;28;20544;-69
2022/03/10 03:09:03;;;;;;;23.30;14.05;;;1.40;99.90;;;;;;5010442;28;20081;-69
2022/03/10 03:11:29;;;;;;;21.77;13.88;;;2.10;99.90;;;;;;5010701;28;20081;-69
2022/03/10 03:13:56;;;;;;;21.15;13.60;;;2.00;99.90;;;;;;5010422;28;20133;-69
2022/03/10 03:16:24;;;;;;;26.45;14.63;;;2.00;99.90;;;;;;5010876;28;20046;-69
2022/03/10 03:18:50;;;;;;;25.25;14.15;;;;;;;;;;5011755;28;20411;-69
2022/03/10 03:21:16;;;;;;;24.67;14.52;;;1.40;99.90;;;;;;5013003;28;20389;-69
2022/03/10 03:23:42;;;;;;;25.05;14.55;;;;;;;;;;5015085;28;20033;-69
2022/03/10 03:26:08;;;;;;;24.83;14.23;;;1.60;99.90;;;;;;5014983;28;20041;-69
2022/03/10 03:28:34;;;;;;;21.98;13.68;;;;;;;;;;5014919;28;20034;-69
2022/03/10 03:30:59;;;;;;;23.98;13.45;;;1.90;99.90;;;;;;5014111;28;20492;-69
2022/03/10 03:33:25;;;;;;;26.20;13.95;;;2.50;99.90;;;;;;5014418;28;20034;-69
2022/03/10 03:35:51;;;;;;;23.55;14.10;;;1.80;99.90;;;;;;5013408;28;20052;-69
2022/03/10 03:38:17;;;;;;;22.42;13.57;;;;;;;;;;5013601;28;20374;-69
2022/03/10 03:40:42;;;;;;;21.88;13.75;;;1.70;99.90;;;;;;5015046;28;20052;-69
2022/03/10 03:43:08;;;;;;;24.90;13.07;;;;;;;;;;5013304;28;20396;-69
2022/03/10 03:45:34;;;;;;;22.40;13.93;;;2.00;99.90;;;;;;5014318;28;20038;-69
2022/03/10 03:48:00;;;;;;;22.92;13.95;;;;;;;;;;5014937;28;20045;-70
2022/03/10 03:50:26;;;;;;;24.00;13.90;;;1.70;99.90;;;;;;5014378;28;20042;-69
2022/03/10 03:52:51;;;;;;;21.38;13.32;;;2.00;99.90;;;;;;5015157;28;20408;-69
2022/03/10 03:55:17;;;;;;;27.20;13.90;;;2.60;99.90;;;;;;5012855;28;20045;-69
2022/03/10 03:57:43;;;;;;;22.52;13.68;;;2.30;99.90;;;;;;5012576;28;20042;-69
2022/03/10 04:00:10;;;;;;;23.17;13.18;;;2.00;99.30;;;;;;5012922;28;20088;-69
2022/03/10 04:02:36;;;;;;;25.75;13.98;;;2.00;99.90;;;;;;5014280;28;20112;-69
2022/03/10 04:05:03;;;;;;;24.67;13.90;;;2.40;99.90;;;;;;5014389;28;20041;-69
2022/03/10 04:07:28;;;;;;;20.80;13.55;;;2.60;99.90;;;;;;5013403;28;20046;-69
2022/03/10 04:09:54;;;;;;;22.13;13.88;;;3.10;99.90;;;;;;5012817;28;20045;-69
2022/03/10 04:12:20;;;;;;;27.42;13.30;;;2.40;99.90;;;;;;5013665;28;20049;-69
2022/03/10 04:14:45;;;;;;;22.70;13.75;;;2.10;99.90;;;;;;5013037;28;20053;-69
2022/03/10 04:17:12;;;;;;;23.17;13.05;;;1.70;99.90;;;;;;5013802;28;20488;-69
2022/03/10 04:19:37;;;;;;;25.83;13.48;;;2.40;99.90;;;;;;5014228;28;20038;-69
2022/03/10 04:22:03;;;;;;;24.48;14.90;;;2.20;99.90;;;;;;5012622;28;20045;-69
2022/03/10 04:24:29;;;;;;;24.85;14.23;;;2.10;99.90;;;;;;5013836;28;20040;-69
2022/03/10 04:26:55;;;;;;;27.25;13.55;;;2.10;99.90;;;;;;5012391;28;20116;-69
2022/03/10 04:29:21;;;;;;;22.40;13.75;;;;;;;;;;5012446;28;20037;-69
2022/03/10 04:31:47;;;;;;;23.98;13.43;;;2.30;99.90;;;;;;4996461;28;20048;-69
2022/03/10 04:34:13;;;;;;;22.20;14.07;;;;;;;;;;4995218;28;20046;-69
2022/03/10 04:36:39;;;;;;;20.92;13.68;;;2.40;99.90;;;;;;5012317;28;20049;-69
2022/03/10 04:39:04;;;;;;;21.70;14.13;;;1.80;99.90;;;;;;5013338;28;20041;-68
2022/03/10 04:41:31;;;;;;;28.55;14.00;;;;;;;;;;5013289;28;20048;-68
2022/03/10 04:43:56;;;;;;;21.38;13.52;;;2.00;99.90;;;;;;5012499;28;20048;-68
2022/03/10 04:46:23;;;;;;;23.42;14.15;;;1.30;99.90;;;;;;5011934;28;20049;-68
2022/03/10 04:48:49;;;;;;;23.90;14.52;;;;;;;;;;5012423;28;20129;-68
2022/03/10 04:51:15;;;;;;;22.35;14.85;;;;;;;;;;4996035;28;20104;-68
2022/03/10 04:53:41;;;;;;;23.83;14.10;;;1.90;99.90;;;;;;5012436;28;20044;-68
2022/03/10 04:56:07;;;;;;;22.25;14.60;;;1.20;99.90;;;;;;5011352;28;20404;-68
2022/03/10 04:58:33;;;;;;;25.90;14.38;;;1.60;99.90;;;;;;5013167;28;20046;-68
2022/03/10 05:00:59;;;;;;;21.58;13.80;;;1.90;99.90;;;;;;5012056;28;20057;-68
2022/03/10 05:03:24;;;;;;;21.23;14.15;;;1.60;99.90;;;;;;5013342;28;20045;-67
2022/03/10 05:05:50;;;;;;;26.00;14.35;;;1.90;99.90;;;;;;5013184;28;20079;-67
2022/03/10 05:08:16;;;;;;;21.08;13.40;;;1.70;99.90;;;;;;5013456;28;20038;-68
2022/03/10 05:10:42;;;;;;;20.95;14.60;;;1.80;99.90;;;;;;5011971;28;20392;-67
2022/03/10 05:13:08;;;;;;;26.65;14.80;;;;;;;;;;5010050;28;20496;-68
2022/03/10 05:15:34;;;;;;;21.67;14.00;;;1.30;99.90;;;;;;5011589;28;21248;-67
2022/03/10 05:18:01;;;;;;;27.02;15.40;;;2.50;99.90;;;;;;5012095;28;20401;-68
2022/03/10 05:20:28;;;;;;;25.17;13.88;;;1.60;99.90;;;;;;5011641;28;20068;-67
2022/03/10 05:23:04;;;;;;;26.35;15.13;;;1.50;99.90;;;;;;5011751;28;20046;-68
2022/03/10 05:25:37;;;;;;;25.70;14.23;;;1.40;99.90;;;;;;5011175;28;20074;-67
2022/03/10 05:28:04;;;;;;;22.95;14.70;;;1.50;99.90;;;;;;5011933;28;20049;-68
2022/03/10 05:30:30;;;;;;;21.50;14.02;;;1.50;99.90;;;;;;4994953;28;20061;-68
2022/03/10 05:32:56;;;;;;;26.33;14.13;;;2.10;99.90;;;;;;5011860;28;20485;-67
2022/03/10 05:35:23;;;;;;;22.83;14.15;;;1.40;99.90;;;;;;5012263;28;20084;-67
2022/03/10 05:37:49;;;;;;;25.13;13.40;;;1.40;99.90;;;;;;5012092;28;20053;-68
2022/03/10 05:40:19;;;;;;;26.38;14.88;;;1.40;99.90;;;;;;4994732;28;20049;-67
2022/03/10 05:42:45;;;;;;;38.67;15.02;;;1.20;99.90;;;;;;5012491;28;20077;-67
2022/03/10 05:45:14;;;;;;;25.58;14.63;;;1.30;99.90;;;;;;5012501;28;20037;-67
2022/03/10 05:47:41;;;;;;;23.98;14.23;;;1.20;99.90;;;;;;5011505;28;20077;-68
2022/03/10 05:50:08;;;;;;;24.75;14.30;;;0.50;99.90;;;;;;5010930;28;20184;-68
2022/03/10 05:52:35;;;;;;;23.38;14.48;;;1.50;99.90;;;;;;5012683;28;20513;-68
2022/03/10 05:55:02;;;;;;;23.55;14.02;;;1.00;99.90;;;;;;5012456;28;20048;-67
2022/03/10 05:57:28;;;;;;;26.63;14.63;;;1.30;99.90;;;;;;5012505;28;20426;-66
2022/03/10 05:59:54;;;;;;;24.83;15.82;;;;;;;;;;5011218;28;20120;-66
2022/03/10 06:02:20;;;;;;;23.08;14.82;;;;;;;;;;5011605;28;20061;-66
2022/03/10 06:04:46;;;;;;;26.55;14.43;;;;;;;;;;5012525;28;20045;-66
2022/03/10 06:07:12;;;;;;;24.13;14.57;;;1.20;99.90;;;;;;5012515;28;20140;-66
2022/03/10 06:09:38;;;;;;;54.10;16.35;;;;;;;;;;5011682;28;20079;-66
2022/03/10 06:12:04;;;;;;;37.55;15.55;;;1.40;99.90;;;;;;5009439;28;20053;-66
2022/03/10 06:14:30;;;;;;;37.88;16.67;;;1.60;99.90;;;;;;4999241;28;20057;-66
2022/03/10 06:16:55;;;;;;;48.17;15.05;;;1.00;99.90;;;;;;5010937;28;20049;-66
2022/03/10 06:19:21;;;;;;;32.30;15.27;;;;;;;;;;5008276;28;20057;-66
2022/03/10 06:21:48;;;;;;;25.80;14.07;;;1.30;99.90;;;;;;5009717;28;20041;-67
2022/03/10 06:24:14;;;;;;;23.67;14.60;;;1.90;99.90;;;;;;5008702;28;20427;-66
2022/03/10 06:26:40;;;;;;;28.17;14.80;;;1.90;99.90;;;;;;5011136;28;20050;-66
2022/03/10 06:29:07;;;;;;;285.77;30.60;;;1.90;99.90;;;;;;4991964;28;20460;-66
2022/03/10 06:31:33;;;;;;;178.18;24.08;;;1.70;99.90;;;;;;5011039;28;20042;-66
2022/03/10 06:34:00;;;;;;;104.13;19.10;;;;;;;;;;5010574;28;20054;-66
2022/03/10 06:36:28;;;;;;;54.67;17.35;;;2.20;99.90;;;;;;5011543;28;20504;-66
2022/03/10 06:38:54;;;;;;;37.55;14.60;;;2.20;99.90;;;;;;5009164;28;20197;-66
2022/03/10 06:41:20;;;;;;;25.58;14.82;;;1.10;99.90;;;;;;5005395;28;20046;-67
2022/03/10 06:43:46;;;;;;;30.73;14.88;;;;;;;;;;5008463;28;20049;-67
2022/03/10 06:46:11;;;;;;;29.05;15.50;;;2.40;99.90;;;;;;5009370;28;20048;-66
2022/03/10 06:48:37;;;;;;;29.17;15.07;;;;;;;;;;5010556;28;20121;-66
2022/03/10 06:51:04;;;;;;;25.92;15.85;;;3.10;99.90;;;;;;5007853;28;20095;-67
2022/03/10 06:53:30;;;;;;;23.38;14.63;;;3.50;99.90;;;;;;5009926;28;20046;-67
2022/03/10 06:55:56;;;;;;;25.38;15.23;;;;;;;;;;5010141;28;20123;-67
2022/03/10 06:58:22;;;;;;;27.15;14.88;;;3.10;99.90;;;;;;5013035;28;20041;-67
2022/03/10 07:00:48;;;;;;;25.85;14.73;;;;;;;;;;5013584;28;20053;-67
2022/03/10 07:03:14;;;;;;;28.92;15.45;;;2.40;99.90;;;;;;4995594;28;20413;-67
2022/03/10 07:05:40;;;;;;;33.78;15.90;;;2.90;99.90;;;;;;5010332;28;20046;-68
2022/03/10 07:08:07;;;;;;;29.65;15.85;;;3.10;99.90;;;;;;4979335;28;20043;-67
2022/03/10 07:10:33;;;;;;;32.50;15.45;;;3.00;99.90;;;;;;4995288;28;20151;-67
2022/03/10 07:12:58;;;;;;;23.80;15.23;;;3.30;99.90;;;;;;4978152;28;20042;-67
2022/03/10 07:15:24;;;;;;;23.10;15.65;;;3.00;99.90;;;;;;5006269;28;20030;-69
2022/03/10 07:17:50;;;;;;;28.58;15.50;;;3.60;99.90;;;;;;5012370;28;20470;-68
2022/03/10 07:20:18;;;;;;;24.38;14.93;;;;;;;;;;5001704;28;20054;-66
2022/03/10 07:22:45;;;;;;;29.65;16.27;;;3.50;99.90;;;;;;4984890;28;20121;-68
2022/03/10 07:25:11;;;;;;;29.10;15.70;;;3.30;99.90;;;;;;4994336;28;20104;-68
2022/03/10 07:27:38;;;;;;;27.05;15.93;;;3.50;99.90;;;;;;5004674;28;20041;-67
2022/03/10 07:30:04;;;;;;;28.17;16.38;;;3.60;99.90;;;;;;4987902;28;20044;-67
2022/03/10 07:32:30;;;;;;;25.60;16.63;;;3.70;99.90;;;;;;5005930;28;20068;-67
2022/03/10 07:34:56;;;;;;;27.70;17.17;;;3.70;99.90;;;;;;4996077;28;20125;-67
2022/03/10 07:37:21;;;;;;;27.83;17.98;;;4.40;99.90;;;;;;4967677;28;20482;-67
2022/03/10 07:39:47;;;;;;;29.80;18.15;;;3.80;99.90;;;;;;4995189;28;20069;-67
2022/03/10 07:42:13;;;;;;;27.15;18.67;;;4.50;99.90;;;;;;4997856;28;20029;-68
2022/03/10 07:44:39;;;;;;;34.15;19.70;;;4.00;99.90;;;;;;4994825;28;20088;-67
2022/03/10 07:47:05;;;;;;;31.55;19.92;;;;;;;;;;4993916;28;20045;-67
2022/03/10 07:49:32;;;;;;;34.55;19.33;;;;;;;;;;4994834;28;20047;-66
2022/03/10 07:52:00;;;;;;;28.30;19.98;;;3.90;99.90;;;;;;4994708;28;20145;-66
2022/03/10 07:54:26;;;;;;;32.80;19.45;;;;;;;;;;4977447;28;20041;-66
2022/03/10 07:56:52;;;;;;;28.67;18.83;;;4.50;99.90;;;;;;5005331;28;20116;-67
2022/03/10 07:59:18;;;;;;;34.30;19.13;;;4.50;99.90;;;;;;4976950;28;20082;-67
2022/03/10 08:01:44;;;;;;;35.47;18.95;;;;;;;;;;4982641;28;20054;-67
2022/03/10 08:04:10;;;;;;;27.95;17.83;;;4.50;99.90;;;;;;4993780;28;20185;-67
2022/03/10 08:06:36;;;;;;;25.02;16.17;;;4.50;99.90;;;;;;4983910;28;20130;-67
2022/03/10 08:09:02;;;;;;;28.65;17.08;;;;;;;;;;4986313;28;20053;-67
2022/03/10 08:11:28;;;;;;;26.42;16.08;;;4.80;99.90;;;;;;4975152;28;20047;-67
2022/03/10 08:13:54;;;;;;;29.42;16.92;;;5.00;99.90;;;;;;4986766;28;20563;-67
2022/03/10 08:16:21;;;;;;;27.67;16.20;;;4.80;99.90;;;;;;4978085;28;20034;-67
2022/03/10 08:18:49;;;;;;;24.88;16.23;;;;;;;;;;4983875;28;20043;-67
2022/03/10 08:21:15;;;;;;;25.30;16.42;;;4.90;99.90;;;;;;4980862;28;20038;-67
2022/03/10 08:23:42;;;;;;;22.70;15.40;;;5.20;99.90;;;;;;4982471;28;20030;-69
2022/03/10 08:26:08;;;;;;;24.00;15.60;;;5.10;99.90;;;;;;4973560;28;20047;-69
2022/03/10 08:28:34;;;;;;;24.23;15.40;;;5.00;99.90;;;;;;4974630;28;20089;-68
2022/03/10 08:31:02;;;;;;;21.23;15.25;;;5.30;99.90;;;;;;4974860;28;20398;-67
2022/03/10 08:33:28;;;;;;;27.80;16.05;;;5.40;99.90;;;;;;4980022;28;20046;-68
2022/03/10 08:35:53;;;;;;;27.83;15.45;;;5.30;99.90;;;;;;4987190;28;20351;-67
2022/03/10 08:38:19;;;;;;;27.52;15.63;;;5.40;99.90;;;;;;4980041;28;20034;-67
2022/03/10 08:40:45;;;;;;;22.58;15.82;;;6.00;99.90;;;;;;4985315;28;20035;-68
2022/03/10 08:43:12;;;;;;;26.10;16.05;;;6.40;99.90;;;;;;4979472;28;20082;-67
2022/03/10 08:45:39;;;;;;;82.75;20.33;;;;;;;;;;4984961;28;20074;-67
2022/03/10 08:48:05;;;;;;;76.50;18.45;;;9.20;92.80;;;;;;4975344;28;20046;-68
2022/03/10 08:50:31;;;;;;;36.08;16.23;;;9.90;90.20;;;;;;4979154;28;20066;-67
2022/03/10 08:52:57;;;;;;;65.80;18.33;;;10.50;87.10;;;;;;4974840;28;20077;-67
2022/03/10 08:55:23;;;;;;;98.47;20.98;;;11.00;85.60;;;;;;4988906;28;20038;-67
2022/03/10 08:57:49;;;;;;;40.80;16.35;;;;;;;;;;4991783;28;20031;-68
2022/03/10 09:00:16;;;;;;;48.88;16.83;;;11.30;83.90;;;;;;4985160;28;20034;-67
2022/03/10 09:02:42;;;;;;;29.80;15.25;;;10.80;84.10;;;;;;5007322;28;20046;-68
2022/03/10 09:05:09;;;;;;;24.88;14.90;;;11.00;85.00;;;;;;5011986;28;20030;-68
2022/03/10 09:07:35;;;;;;;28.02;14.93;;;11.50;70.30;;;;;;5012586;28;20397;-68
2022/03/10 09:10:01;;;;;;;23.48;14.73;;;11.10;84.70;;;;;;5010936;28;20508;-68
2022/03/10 09:12:30;;;;;;;25.10;14.13;;;11.10;84.20;;;;;;5012123;28;20121;-68
2022/03/10 09:14:56;;;;;;;21.20;14.25;;;10.80;84.80;;;;;;5011831;28;20543;-68
2022/03/10 09:17:22;;;;;;;25.33;14.52;;;;;;;;;;5010955;28;20042;-68
2022/03/10 09:19:49;;;;;;;23.40;15.10;;;10.60;82.00;;;;;;5010283;28;20049;-68
2022/03/10 09:22:15;;;;;;;37.80;14.75;;;11.40;60.10;;;;;;5011116;28;20038;-67
2022/03/10 09:24:41;;;;;;;21.23;14.52;;;11.60;82.80;;;;;;5011713;28;20036;-68
2022/03/10 09:27:07;;;;;;;20.92;14.48;;;11.70;80.90;;;;;;5010408;28;20029;-68
2022/03/10 09:29:33;;;;;;;26.55;14.25;;;11.50;81.70;;;;;;5011527;28;20034;-67
2022/03/10 09:31:58;;;;;;;20.90;14.05;;;11.60;82.40;;;;;;5007555;28;20367;-68
2022/03/10 09:34:24;;;;;;;21.30;14.32;;;11.60;83.00;;;;;;5011177;28;20030;-68
2022/03/10 09:36:50;;;;;;;21.25;14.07;;;;;;;;;;5008921;28;20124;-68
2022/03/10 09:39:18;;;;;;;29.40;14.15;;;11.70;68.90;;;;;;5011371;28;20401;-68
2022/03/10 09:41:44;;;;;;;29.33;14.10;;;11.90;82.30;;;;;;5011033;28;20439;-67
2022/03/10 09:44:17;;;;;;;25.30;13.75;;;11.90;80.00;;;;;;5011297;28;20096;-67
2022/03/10 09:46:44;;;;;;;18.42;13.15;;;11.80;79.90;;;;;;5012511;28;20033;-67
2022/03/10 09:49:10;;;;;;;21.02;13.77;;;11.70;72.80;;;;;;5009959;28;20038;-69
2022/03/10 09:51:37;;;;;;;22.17;14.43;;;11.80;59.10;;;;;;5011131;28;20057;-69
2022/03/10 09:54:03;;;;;;;27.33;14.18;;;12.00;79.70;;;;;;5011305;28;20041;-69
2022/03/10 09:56:30;;;;;;;23.65;13.77;;;;;;;;;;5010438;28;20500;-69
2022/03/10 09:58:56;;;;;;;22.88;13.52;;;11.80;79.40;;;;;;5010323;28;20060;-70
2022/03/10 10:01:22;;;;;;;26.05;14.20;;;;;;;;;;5008303;28;20050;-71
2022/03/10 10:03:48;;;;;;;20.63;13.27;;;11.60;78.60;;;;;;4981874;28;20434;-71
2022/03/10 10:06:13;;;;;;;18.98;12.80;;;12.20;78.60;;;;;;5010424;28;20030;-71
2022/03/10 10:08:41;;;;;;;22.98;13.93;;;;;;;;;;4987119;28;20458;-71
2022/03/10 10:11:08;;;;;;;23.75;13.40;;;12.10;77.50;;;;;;4958934;28;20046;-69
2022/03/10 10:13:39;;;;;;;19.55;12.70;;;11.90;76.60;;;;;;5001243;28;20038;-69
2022/03/10 10:16:10;;;;;;;26.02;13.57;;;11.90;55.80;;;;;;4953150;28;20041;-71
2022/03/10 10:18:38;;;;;;;18.90;12.70;;;12.10;75.90;;;;;;4988943;28;20046;-71
2022/03/10 10:21:05;;;;;;;23.23;13.60;;;12.30;76.10;;;;;;4992133;28;20108;-72
2022/03/10 10:23:33;;;;;;;24.67;13.57;;;12.00;55.60;;;;;;4977255;28;20529;-72
2022/03/10 10:26:05;;;;;;;19.13;12.98;;;11.90;75.60;;;;;;5010179;28;20040;-71
2022/03/10 10:28:35;;;;;;;22.25;13.55;;;12.30;55.40;;;;;;4974139;28;20037;-71
2022/03/10 10:31:05;;;;;;;25.02;14.00;;;12.20;74.60;;;;;;4992489;28;20026;-72
2022/03/10 10:33:34;;;;;;;20.02;12.80;;;12.50;55.10;;;;;;4964540;28;20124;-70
2022/03/10 10:36:24;;;;;;;25.27;14.02;;;12.60;74.80;;;;;;5004976;28;20047;-69
2022/03/10 10:38:55;;;;;;;19.35;13.90;;;13.00;66.50;;;;;;4999148;28;20048;-70
2022/03/10 10:41:20;;;;;;;23.60;13.70;;;12.60;74.70;;;;;;4988792;28;20042;-69
2022/03/10 10:43:49;;;;;;;19.58;13.38;;;12.00;74.40;;;;;;4981332;28;20504;-70
2022/03/10 10:46:24;;;;;;;24.48;14.73;;;12.10;74.30;;;;;;5013694;28;20391;-70
2022/03/10 10:48:50;;;;;;;21.40;14.05;;;12.40;74.20;;;;;;4990774;28;20041;-70
2022/03/10 10:51:29;;;;;;;19.38;14.35;;;12.50;69.00;;;;;;4963504;28;20321;-70
2022/03/10 10:53:56;;;;;;;55.78;16.27;;;12.80;75.80;;;;;;4998518;28;20502;-70
2022/03/10 10:56:23;;;;;;;40.50;15.90;;;12.70;55.10;;;;;;5011445;28;20045;-70
2022/03/10 10:58:52;;;;;;;40.90;16.40;;;12.80;67.10;;;;;;5010465;28;20133;-70
2022/03/10 11:01:33;;;;;;;31.48;14.63;;;12.40;73.50;;;;;;4984406;28;20137;-70
2022/03/10 11:03:59;;;;;;;24.50;14.77;;;12.80;75.00;;;;;;5014341;28;20489;-70
2022/03/10 11:06:25;;;;;;;33.25;14.57;;;12.90;76.00;;;;;;5013317;28;20540;-70
2022/03/10 11:08:52;;;;;;;21.15;14.65;;;13.20;75.50;;;;;;5013563;28;20084;-70
2022/03/10 11:11:20;;;;;;;21.67;14.82;;;13.20;76.00;;;;;;5013633;28;20104;-72
2022/03/10 11:13:49;;;;;;;28.95;14.50;;;13.20;54.30;;;;;;5013918;28;20080;-70
2022/03/10 11:16:17;;;;;;;31.40;14.57;;;13.30;53.90;;;;;;5014518;28;20040;-71
2022/03/10 11:18:48;;;;;;;25.58;15.15;;;13.20;53.30;;;;;;5011667;28;20037;-71
2022/03/10 11:21:45;;;;;;;24.92;15.65;;;13.50;73.90;;;;;;5013309;28;20096;-71
2022/03/10 11:24:29;;;;;;;;;;;13.40;52.60;;;;;;5016073;28;20034;-71
2022/03/10 11:27:10;;;;;;;30.65;15.68;;;12.70;72.50;;;;;;5013153;28;20012;-71
2022/03/10 11:29:37;;;;;;;35.70;14.07;;;13.20;57.60;;;;;;5011269;28;20065;-71
2022/03/10 11:32:09;;;;;;;29.33;15.18;;;14.40;73.50;;;;;;5014755;28;20124;-71
2022/03/10 11:34:58;;;;;;;25.58;15.57;;;13.70;54.80;;;;;;5014687;28;20041;-71
2022/03/10 11:37:42;;;;;;;22.40;14.27;;;13.50;71.00;;;;;;5013626;28;20050;-71
2022/03/10 11:40:12;;;;;;;34.33;15.77;;;13.80;71.70;;;;;;5012812;28;20049;-71
2022/03/10 11:42:40;;;;;;;23.85;15.07;;;13.50;60.90;;;;;;5014261;28;20391;-71
2022/03/10 11:45:17;;;;;;;29.40;14.13;;;14.00;65.40;;;;;;5014149;28;20038;-71
2022/03/10 11:47:44;;;;;;;26.60;15.00;;;15.10;74.20;;;;;;5012970;28;20038;-71
2022/03/10 11:50:36;;;;;;;22.55;14.20;;;14.50;68.70;;;;;;5012702;28;20087;-71
2022/03/10 11:53:04;;;;;;;36.58;15.55;;;14.30;49.40;;;;;;5008883;28;20050;-71
2022/03/10 11:55:40;;;;;;;26.67;15.13;;;14.50;49.10;;;;;;5012451;28;20052;-72
2022/03/10 11:58:07;;;;;;;33.53;15.63;;;14.50;65.20;;;;;;5013333;28;20034;-71
2022/03/10 12:00:44;;;;;;;28.90;15.23;;;14.60;73.00;;;;;;5012352;28;20049;-71
2022/03/10 12:03:17;;;;;;;31.35;15.35;;;14.70;48.30;;;;;;5011451;28;20129;-71
2022/03/10 12:06:03;;;;;;;25.33;14.55;;;14.80;72.90;;;;;;5010189;28;20052;-71
2022/03/10 12:08:31;;;;;;;26.17;14.93;;;14.80;48.20;;;;;;5012719;28;20037;-72
2022/03/10 12:10:58;;;;;;;39.25;15.27;;;14.90;72.40;;;;;;5013920;28;20092;-71
2022/03/10 12:13:36;;;;;;;25.73;14.93;;;15.00;47.90;;;;;;5014208;28;20057;-72
2022/03/10 12:16:28;;;;;;;26.35;15.63;;;15.00;52.40;;;;;;5013393;28;20465;-71
2022/03/10 12:18:54;;;;;;;24.48;15.00;;;15.10;50.80;;;;;;5016805;28;20401;-72
2022/03/10 12:21:25;;;;;;;27.45;15.27;;;15.20;86.00;;;;;;5013590;28;20049;-72
2022/03/10 12:23:56;;;;;;;27.20;15.13;;;;;;;;;;5001506;28;20394;-71
2022/03/10 12:26:30;;;;;;;26.73;15.15;;;;;;;;;;5012467;28;20108;-72
2022/03/10 12:28:57;;;;;;;27.90;14.70;;;15.50;51.30;;;;;;5014054;28;20115;-72
2022/03/10 12:31:24;;;;;;;27.00;15.13;;;;;;;;;;5014236;28;20496;-72
2022/03/10 12:33:53;;;;;;;28.92;15.98;;;15.40;51.00;;;;;;5014421;28;20057;-71
2022/03/10 12:36:31;;;;;;;28.70;16.08;;;15.80;84.00;;;;;;5013194;28;20169;-72
2022/03/10 12:38:58;;;;;;;25.20;15.18;;;15.60;50.60;;;;;;5014443;28;20096;-72
2022/03/10 12:41:29;;;;;;;25.80;15.07;;;15.70;50.80;;;;;;5013174;28;20041;-72
2022/03/10 12:43:55;;;;;;;29.77;15.57;;;;;;;;;;5013713;28;20037;-72
2022/03/10 12:46:25;;;;;;;33.17;15.80;;;16.10;50.50;;;;;;5012731;28;20042;-72
2022/03/10 12:49:19;;;;;;;29.70;15.63;;;16.10;46.70;;;;;;5013431;28;20504;-72
2022/03/10 12:51:45;;;;;;;27.45;15.55;;;;;;;;;;5013254;28;20046;-72
2022/03/10 12:54:11;;;;;;;32.03;16.10;;;;;;;;;;5012221;28;20117;-72
2022/03/10 12:56:52;;;;;;;36.03;15.68;;;16.20;45.60;;;;;;5013591;28;20041;-72